createdAt,value
2019-04-23T00:02:46.136Z,95488.17
2019-04-23T00:04:54.172Z,95499.03
2019-04-23T00:07:43.140Z,95493.75
2019-04-23T00:10:12.722Z,95489.73
2019-04-23T00:12:49.633Z,95491.84
2019-04-23T00:15:08.753Z,95486.64
2019-04-23T00:20:10.091Z,95487.83
2019-04-23T00:23:02.441Z,95495.66
2019-04-23T00:28:14.177Z,95497.55
2019-04-23T00:30:44.078Z,95495.77
2019-04-23T00:33:12.593Z,95494.38
2019-04-23T00:35:43.424Z,95497.16
2019-04-23T00:38:18.216Z,95501.05
2019-04-23T00:40:47.287Z,95501.75
2019-04-23T00:43:15.449Z,95507.83
2019-04-23T00:48:31.146Z,95523.22
2019-04-23T00:50:49.179Z,95521.22
2019-04-23T00:53:23.416Z,95526.70
2019-04-23T00:56:01.985Z,95523.20
2019-04-23T00:58:29.095Z,95533.69
2019-04-23T01:00:52.835Z,95536.17
2019-04-23T01:03:21.422Z,95542.86
2019-04-23T01:05:52.689Z,95551.44
2019-04-23T01:11:02.734Z,95543.81
2019-04-23T01:13:39.593Z,95550.34
2019-04-23T01:19:04.170Z,95558.40
2019-04-23T01:21:09.843Z,95561.09
2019-04-23T01:24:02.739Z,95563.81
2019-04-23T01:27:01.743Z,95560.36
2019-04-23T01:29:30.475Z,95557.47
2019-04-23T01:31:57.442Z,95561.67
2019-04-23T01:34:31.425Z,95556.28
2019-04-23T01:36:57.481Z,95564.37
2019-04-23T01:39:28.031Z,95570.74
2019-04-23T01:42:20.173Z,95569.19
2019-04-23T01:44:36.728Z,95573.57
2019-04-23T01:47:07.781Z,95571.20
2019-04-23T01:49:48.407Z,95572.61
2019-04-23T01:52:08.376Z,95576.38
2019-04-23T01:54:39.435Z,95576.30
2019-04-23T01:57:12.961Z,95566.50
2019-04-23T01:59:49.462Z,95571.41
2019-04-23T02:02:12.137Z,95568.50
2019-04-23T02:04:46.045Z,95571.09
2019-04-23T02:07:22.086Z,95573.70
2019-04-23T02:09:50.976Z,95568.20
2019-04-23T02:12:18.168Z,95561.10
2019-04-23T02:14:51.672Z,95554.42
2019-04-23T02:17:21.930Z,95540.75
2019-04-23T02:19:51.742Z,95547.05
2019-04-23T02:22:52.668Z,95554.12
2019-04-23T02:25:34.901Z,95552.52
2019-04-23T02:27:59.915Z,95550.53
2019-04-23T02:33:10.476Z,95553.25
2019-04-23T02:38:15.790Z,95556.92
2019-04-23T02:40:49.514Z,95553.73
2019-04-23T02:50:39.772Z,95557.74
2019-04-23T02:53:20.782Z,95558.05
2019-04-23T02:55:50.448Z,95554.61
2019-04-23T02:58:18.559Z,95569.41
2019-04-23T03:03:25.182Z,95575.87
2019-04-23T03:05:54.912Z,95579.80
2019-04-23T03:11:01.342Z,95591.56
2019-04-23T03:19:02.621Z,95600.97
2019-04-23T03:21:54.356Z,95603.60
2019-04-23T03:24:39.021Z,95597.53
2019-04-23T03:29:40.506Z,95607.22
2019-04-23T03:37:20.124Z,95617.03
2019-04-23T03:42:22.278Z,95628.02
2019-04-23T03:44:47.793Z,95628.11
2019-04-23T03:47:18.465Z,95633.78
2019-04-23T03:49:48.134Z,95637.98
2019-04-23T03:52:27.835Z,95636.13
2019-04-23T03:54:46.211Z,95645.17
2019-04-23T04:04:45.293Z,95635.09
2019-04-23T04:12:29.284Z,95635.45
2019-04-23T04:17:26.728Z,95640.14
2019-04-23T04:22:39.928Z,95646.95
2019-04-23T04:30:19.218Z,95657.12
2019-04-23T04:32:36.744Z,95659.44
2019-04-23T04:42:46.174Z,95675.59
2019-04-23T04:45:22.815Z,95668.52
2019-04-23T04:47:42.736Z,95666.42
2019-04-23T04:50:08.232Z,95673.30
2019-04-23T04:52:49.025Z,95682.31
2019-04-23T04:55:21.487Z,95688.59
2019-04-23T04:58:00.517Z,95700.29
2019-04-23T05:00:29.068Z,95691.86
2019-04-23T05:07:48.159Z,95696.70
2019-04-23T05:10:32.491Z,95694.55
2019-04-23T05:13:15.663Z,95697.94
2019-04-23T05:15:16.899Z,95698.92
2019-04-23T05:18:23.649Z,95689.06
2019-04-23T05:20:53.248Z,95687.17
2019-04-23T05:23:28.137Z,95690.99
2019-04-23T05:25:52.883Z,95687.30
2019-04-23T05:28:36.199Z,95690.61
2019-04-23T05:33:23.506Z,95688.78
2019-04-23T05:38:46.021Z,95697.47
2019-04-23T05:41:10.030Z,95696.01
2019-04-23T05:43:35.799Z,95700.20
2019-04-23T05:46:04.724Z,95691.00
2019-04-23T05:48:33.357Z,95700.64
2019-04-23T05:51:10.997Z,95700.64
2019-04-23T05:53:39.767Z,95717.67
2019-04-23T05:56:10.165Z,95692.88
2019-04-23T06:06:44.551Z,95716.46
2019-04-23T06:11:45.055Z,95708.73
2019-04-23T06:14:29.108Z,95716.57
2019-04-23T06:21:44.271Z,95713.04
2019-04-23T06:24:16.308Z,95713.04
2019-04-23T06:31:47.538Z,95712.98
2019-04-23T06:34:17.144Z,95721.75
2019-04-23T06:36:46.309Z,95719.66
2019-04-23T06:39:24.288Z,95706.52
2019-04-23T06:41:50.118Z,95695.56
2019-04-23T06:44:28.461Z,95703.72
2019-04-23T06:46:56.855Z,95704.49
2019-04-23T06:49:32.877Z,95702.88
2019-04-23T06:52:10.484Z,95724.69
2019-04-23T06:54:38.796Z,95737.77
2019-04-23T06:57:09.062Z,95737.77
2019-04-23T06:59:33.587Z,95738.41
2019-04-23T07:02:10.010Z,95732.95
2019-04-23T07:09:34.925Z,95719.02
2019-04-23T07:12:08.834Z,95725.47
2019-04-23T07:14:44.092Z,95725.47
2019-04-23T07:17:09.219Z,95754.49
2019-04-23T07:19:42.400Z,95721.76
2019-04-23T07:25:00.126Z,95749.88
2019-04-23T07:27:13.206Z,95747.16
2019-04-23T07:32:15.447Z,95747.84
2019-04-23T07:34:59.208Z,95747.84
2019-04-23T07:37:17.614Z,95733.35
2019-04-23T07:40:21.621Z,95752.19
2019-04-23T07:43:03.547Z,95752.19
2019-04-23T07:45:24.016Z,95754.42
2019-04-23T07:48:43.737Z,95739.59
2019-04-23T07:51:00.573Z,95725.61
2019-04-23T07:53:37.963Z,95725.95
2019-04-23T07:58:28.629Z,95741.41
2019-04-23T08:01:04.803Z,95737.83
2019-04-23T08:03:40.462Z,95728.69
2019-04-23T08:06:08.827Z,95724.95
2019-04-23T08:08:39.867Z,95723.45
2019-04-23T08:13:47.329Z,95729.39
2019-04-23T08:16:23.280Z,95747.66
2019-04-23T08:18:49.448Z,95760.88
2019-04-23T08:21:15.764Z,95763.06
2019-04-23T08:29:25.123Z,95746.02
2019-04-23T08:32:16.421Z,95727.47
2019-04-23T08:34:37.988Z,95723.91
2019-04-23T08:39:38.553Z,95747.16
2019-04-23T08:42:27.327Z,95746.23
2019-04-23T08:45:10.476Z,95747.97
2019-04-23T08:47:42.215Z,95742.77
2019-04-23T08:50:04.333Z,95752.64
2019-04-23T08:52:38.384Z,95748.00
2019-04-23T08:55:13.633Z,95743.88
2019-04-23T08:57:38.016Z,95747.48
2019-04-23T09:00:14.164Z,95749.20
2019-04-23T09:02:47.757Z,95751.47
2019-04-23T09:05:26.243Z,95749.71
2019-04-23T09:07:57.141Z,95752.78
2019-04-23T09:12:49.155Z,95757.73
2019-04-23T09:15:33.040Z,95763.42
2019-04-23T09:17:56.225Z,95771.70
2019-04-23T09:20:29.454Z,95771.72
2019-04-23T09:22:50.358Z,95764.95
2019-04-23T09:25:34.648Z,95756.95
2019-04-23T09:27:59.468Z,95758.44
2019-04-23T09:30:32.329Z,95752.46
2019-04-23T09:33:28.758Z,95751.34
2019-04-23T09:36:16.829Z,95739.36
2019-04-23T09:38:55.784Z,95734.58
2019-04-23T09:41:36.201Z,95740.16
2019-04-23T09:44:56.279Z,95758.14
2019-04-23T09:49:47.309Z,95766.53
2019-04-23T09:52:23.501Z,95773.43
2019-04-23T09:55:01.696Z,95762.92
2019-04-23T09:57:17.140Z,95766.86
2019-04-23T09:59:49.894Z,95753.67
2019-04-23T10:02:14.718Z,95758.63
2019-04-23T10:04:38.000Z,95760.77
2019-04-23T10:07:12.627Z,95754.38
2019-04-23T10:09:30.088Z,95768.09
2019-04-23T10:12:01.001Z,95768.31
2019-04-23T10:14:30.546Z,95768.66
2019-04-23T10:17:00.148Z,95764.49
2019-04-23T10:19:30.762Z,95759.20
2019-04-23T10:22:01.677Z,95756.86
2019-04-23T10:24:31.099Z,95754.75
2019-04-23T10:27:01.940Z,95747.57
2019-04-23T10:29:38.226Z,95745.77
2019-04-23T10:32:09.350Z,95748.00
2019-04-23T10:34:57.874Z,95734.31
2019-04-23T10:37:11.303Z,95735.72
2019-04-23T10:39:44.709Z,95730.88
2019-04-23T10:42:14.078Z,95743.69
2019-04-23T10:45:10.843Z,95740.72
2019-04-23T10:48:31.723Z,95745.66
2019-04-23T10:51:18.600Z,95740.72
2019-04-23T10:54:02.993Z,95727.70
2019-04-23T10:59:03.238Z,95743.88
2019-04-23T11:01:35.816Z,95743.09
2019-04-23T11:04:21.470Z,95742.48
2019-04-23T11:06:45.455Z,95739.63
2019-04-23T11:09:27.541Z,95733.27
2019-04-23T11:12:02.178Z,95727.03
2019-04-23T11:14:36.993Z,95716.89
2019-04-23T11:17:04.454Z,95715.09
2019-04-23T11:19:51.587Z,95737.11
2019-04-23T11:22:28.104Z,95736.26
2019-04-23T11:24:41.524Z,95720.05
2019-04-23T11:27:20.361Z,95721.79
2019-04-23T11:30:00.247Z,95727.91
2019-04-23T11:32:32.539Z,95735.47
2019-04-23T11:37:25.409Z,95722.00
2019-04-23T11:39:44.594Z,95724.61
2019-04-23T11:44:49.895Z,95736.17
2019-04-23T11:48:04.443Z,95721.59
2019-04-23T11:49:52.474Z,95723.36
2019-04-23T11:52:30.731Z,95709.58
2019-04-23T11:54:53.502Z,95708.76
2019-04-23T11:59:53.085Z,95710.05
2019-04-23T12:02:38.620Z,95693.86
2019-04-23T12:05:26.611Z,95686.19
2019-04-23T12:08:18.147Z,95677.56
2019-04-23T12:11:24.027Z,95674.44
2019-04-23T12:13:28.411Z,95664.06
2019-04-23T12:15:53.990Z,95655.27
2019-04-23T12:18:34.849Z,95666.50
2019-04-23T12:21:21.572Z,95698.37
2019-04-23T12:26:33.849Z,95710.31
2019-04-23T12:28:57.738Z,95702.20
2019-04-23T12:31:27.669Z,95692.19
2019-04-23T12:33:57.343Z,95670.59
2019-04-23T12:36:36.968Z,95666.55
2019-04-23T12:39:04.407Z,95695.88
2019-04-23T12:41:35.869Z,95700.45
2019-04-23T12:44:09.703Z,95677.20
2019-04-23T12:46:45.777Z,95657.72
2019-04-23T12:49:28.366Z,95652.47
2019-04-23T12:51:50.262Z,95658.70
2019-04-23T12:54:20.602Z,95650.03
2019-04-23T12:56:48.089Z,95668.05
2019-04-23T12:59:17.153Z,95682.27
2019-04-23T13:01:51.369Z,95678.41
2019-04-23T13:04:18.660Z,95674.88
2019-04-23T13:06:44.165Z,95694.25
2019-04-23T13:09:35.046Z,95680.20
2019-04-23T13:11:52.883Z,95657.97
2019-04-23T13:14:29.484Z,95658.83
2019-04-23T13:17:01.875Z,95654.72
2019-04-23T13:19:37.473Z,95649.97
2019-04-23T13:24:46.116Z,95672.47
2019-04-23T13:27:23.982Z,95677.74
2019-04-23T13:29:49.991Z,95676.97
2019-04-23T13:32:23.587Z,95682.24
2019-04-23T13:35:04.693Z,95671.57
2019-04-23T13:37:31.705Z,95660.92
2019-04-23T13:39:51.909Z,95658.09
2019-04-23T13:42:33.433Z,95654.59
2019-04-23T13:45:01.007Z,95658.40
2019-04-23T13:50:00.304Z,95649.37
2019-04-23T13:52:58.703Z,95632.53
2019-04-23T13:58:04.997Z,95628.50
2019-04-23T14:00:06.499Z,95612.78
2019-04-23T14:02:37.184Z,95617.83
2019-04-23T14:05:21.693Z,95584.70
2019-04-23T14:07:55.610Z,95578.98
2019-04-23T14:10:32.243Z,95568.34
2019-04-23T14:13:08.811Z,95567.34
2019-04-23T14:15:36.022Z,95565.80
2019-04-23T14:18:22.666Z,95564.41
2019-04-23T14:20:27.679Z,95569.58
2019-04-23T14:23:07.847Z,95580.10
2019-04-23T14:25:28.168Z,95586.30
2019-04-23T14:28:13.968Z,95571.91
2019-04-23T14:30:38.532Z,95565.98
2019-04-23T14:33:15.870Z,95569.77
2019-04-23T14:35:40.281Z,95568.64
2019-04-23T14:43:14.529Z,95570.13
2019-04-23T14:48:27.898Z,95574.07
2019-04-23T14:50:48.771Z,95563.79
2019-04-23T14:53:24.271Z,95558.25
2019-04-23T14:58:31.288Z,95569.50
2019-04-23T15:01:16.021Z,95575.84
2019-04-23T15:03:44.947Z,95586.97
2019-04-23T15:11:21.311Z,95577.94
2019-04-23T15:13:49.453Z,95567.17
2019-04-23T15:19:31.555Z,95573.56
2019-04-23T15:28:49.076Z,95560.28
2019-04-23T15:34:14.009Z,95589.50
2019-04-23T15:39:24.524Z,95587.55
2019-04-23T15:44:13.591Z,95589.63
2019-04-23T15:46:51.279Z,95605.94
2019-04-23T15:51:56.625Z,95599.66
2019-04-23T15:54:29.872Z,95642.48
2019-04-23T15:56:55.060Z,95642.50
2019-04-23T15:59:34.647Z,95648.66
2019-04-23T16:01:41.360Z,95654.16
2019-04-23T16:03:59.119Z,95659.05
2019-04-23T16:06:32.314Z,95662.45
2019-04-23T16:09:16.247Z,95670.55
2019-04-23T16:11:51.803Z,95687.21
2019-04-23T16:14:32.969Z,95690.61
2019-04-23T16:20:06.134Z,95679.52
2019-04-23T16:22:18.952Z,95665.55
2019-04-23T16:25:03.527Z,95668.83
2019-04-23T16:27:14.930Z,95666.23
2019-04-23T16:35:28.940Z,95637.57
2019-04-23T16:38:01.627Z,95628.77
2019-04-23T16:42:59.799Z,95646.73
2019-04-23T16:45:27.040Z,95642.77
2019-04-23T16:47:59.658Z,95643.27
2019-04-23T16:50:31.019Z,95644.75
2019-04-23T16:53:02.382Z,95635.56
2019-04-23T16:55:34.601Z,95634.37
2019-04-23T16:58:03.595Z,95647.84
2019-04-23T17:00:34.795Z,95644.83
2019-04-23T17:03:11.176Z,95637.23
2019-04-23T17:05:39.309Z,95648.61
2019-04-23T17:08:31.272Z,95650.02
2019-04-23T17:10:42.821Z,95640.06
2019-04-23T17:15:53.387Z,95637.84
2019-04-23T17:18:22.561Z,95636.85
2019-04-23T17:20:47.124Z,95652.31
2019-04-23T17:23:25.554Z,95650.63
2019-04-23T17:25:53.772Z,95656.02
2019-04-23T17:31:05.248Z,95656.43
2019-04-23T17:33:39.498Z,95659.63
2019-04-23T17:39:05.559Z,95661.84
2019-04-23T17:44:10.870Z,95641.85
2019-04-23T17:46:37.573Z,95628.46
2019-04-23T17:49:04.337Z,95627.66
2019-04-23T17:51:31.261Z,95623.27
2019-04-23T17:54:10.753Z,95618.88
2019-04-23T17:56:55.818Z,95617.39
2019-04-23T17:59:14.056Z,95619.67
2019-04-23T18:01:47.546Z,95614.58
2019-04-23T18:04:23.949Z,95621.86
2019-04-23T18:06:50.867Z,95618.09
2019-04-23T18:11:57.668Z,95624.57
2019-04-23T18:14:16.490Z,95625.18
2019-04-23T18:16:57.431Z,95612.70
2019-04-23T18:22:35.489Z,95621.78
2019-04-23T18:25:08.497Z,95622.97
2019-04-23T18:27:42.536Z,95626.55
2019-04-23T18:30:19.124Z,95619.08
2019-04-23T18:35:29.917Z,95622.16
2019-04-23T18:38:09.376Z,95624.98
2019-04-23T18:40:55.214Z,95624.00
2019-04-23T18:43:21.096Z,95641.85
2019-04-23T18:45:45.130Z,95630.78
2019-04-23T18:58:48.586Z,95646.34
2019-04-23T19:06:40.858Z,95634.30
2019-04-23T19:10:09.996Z,95632.57
2019-04-23T19:12:36.021Z,95634.67
2019-04-23T19:15:09.407Z,95622.31
2019-04-23T19:20:01.124Z,95618.89
2019-04-23T19:25:07.573Z,95622.27
2019-04-23T19:27:40.426Z,95621.48
2019-04-23T19:30:26.423Z,95616.48
2019-04-23T19:32:50.767Z,95615.91
2019-04-23T19:35:44.280Z,95614.20
2019-04-23T19:40:28.347Z,95607.70
2019-04-23T19:42:55.766Z,95606.13
2019-04-23T19:45:28.350Z,95600.95
2019-04-23T19:47:58.586Z,95598.05
2019-04-23T19:50:33.001Z,95590.06
2019-04-23T19:55:30.306Z,95589.38
2019-04-23T19:58:05.063Z,95603.03
2019-04-23T20:00:53.460Z,95597.16
2019-04-23T20:03:28.180Z,95592.55
2019-04-23T20:05:41.425Z,95600.45
2019-04-23T20:10:48.192Z,95596.13
2019-04-23T20:13:14.031Z,95610.52
2019-04-23T20:15:51.160Z,95616.51
2019-04-23T20:18:09.061Z,95621.50
2019-04-23T20:23:24.802Z,95625.78
2019-04-23T20:28:41.360Z,95637.88
2019-04-23T20:32:03.175Z,95639.06
2019-04-23T20:34:22.630Z,95642.34
2019-04-23T20:36:38.496Z,95648.34
2019-04-23T20:42:10.787Z,95664.47
2019-04-23T20:47:05.747Z,95666.17
2019-04-23T20:49:40.159Z,95660.50
2019-04-23T20:54:56.524Z,95667.86
2019-04-23T20:57:31.520Z,95675.03
2019-04-23T21:05:10.070Z,95666.13
2019-04-23T21:13:06.856Z,95691.08
2019-04-23T21:17:54.647Z,95697.24
2019-04-23T21:22:57.205Z,95694.27
2019-04-23T21:25:18.849Z,95701.86
2019-04-23T21:28:06.364Z,95705.27
2019-04-23T21:31:03.435Z,95705.08
2019-04-23T21:36:18.842Z,95699.30
2019-04-23T21:39:15.100Z,95689.53
2019-04-23T21:42:01.916Z,95695.34
2019-04-23T21:52:17.564Z,95682.14
2019-04-23T21:54:41.214Z,95685.23
2019-04-23T21:57:02.369Z,95692.02
2019-04-23T21:59:36.857Z,95690.91
2019-04-23T22:02:28.761Z,95682.86
2019-04-23T22:07:06.949Z,95691.59
2019-04-23T22:09:43.773Z,95689.41
2019-04-23T22:14:45.380Z,95694.34
2019-04-23T22:17:16.874Z,95693.84
2019-04-23T22:20:00.641Z,95683.95
2019-04-23T22:22:16.940Z,95686.91
2019-04-23T22:24:50.010Z,95691.45
2019-04-23T22:27:20.184Z,95686.00
2019-04-23T22:32:33.977Z,95676.06
2019-04-23T22:37:25.378Z,95663.38
2019-04-23T22:43:06.167Z,95664.61
2019-04-23T22:47:33.555Z,95641.18
2019-04-23T22:55:07.948Z,95653.48
2019-04-23T22:57:56.450Z,95646.27
2019-04-23T23:00:13.378Z,95638.63
2019-04-23T23:05:50.653Z,95627.86
2019-04-23T23:08:10.901Z,95621.84
2019-04-23T23:10:48.354Z,95610.14
2019-04-23T23:13:12.032Z,95616.22
2019-04-23T23:15:51.042Z,95630.77
2019-04-23T23:18:19.848Z,95621.02
2019-04-23T23:20:46.397Z,95626.47
2019-04-23T23:25:52.033Z,95622.47
2019-04-23T23:28:26.165Z,95623.42
2019-04-23T23:30:58.169Z,95607.95
2019-04-23T23:35:54.143Z,95631.41
2019-04-23T23:38:42.166Z,95630.15
2019-04-23T23:41:03.628Z,95630.85
2019-04-23T23:43:36.628Z,95634.89
2019-04-23T23:46:06.947Z,95627.05
2019-04-23T23:48:30.814Z,95614.00
2019-04-23T23:51:29.085Z,95610.48
2019-04-23T23:53:40.061Z,95602.22
2019-04-23T23:58:56.868Z,95606.33
